createdAt,value
2023-03-11T00:12:29.405Z,3.90
2023-03-11T00:32:29.455Z,6.00
2023-03-11T00:47:29.384Z,3.40
2023-03-11T00:52:29.437Z,3.40
2023-03-11T00:57:29.415Z,4.30
2023-03-11T01:02:29.390Z,4.30
2023-03-11T01:12:29.418Z,4.60
2023-03-11T01:17:29.390Z,4.60
2023-03-11T01:22:29.382Z,4.60
2023-03-11T01:27:29.402Z,3.90
2023-03-11T01:37:29.400Z,3.90
2023-03-11T01:42:29.409Z,2.60
2023-03-11T01:47:29.404Z,2.60
2023-03-11T01:57:29.402Z,5.00
2023-03-11T02:22:29.394Z,3.80
2023-03-11T02:37:29.402Z,2.20
2023-03-11T02:42:29.414Z,5.00
2023-03-11T02:52:29.409Z,5.00
2023-03-11T03:07:29.401Z,2.90
2023-03-11T03:12:29.434Z,4.30
2023-03-11T03:17:29.505Z,4.30
2023-03-11T03:22:29.460Z,4.30
2023-03-11T03:27:29.424Z,2.60
2023-03-11T03:32:29.476Z,2.60
2023-03-11T03:37:29.422Z,2.60
2023-03-11T03:42:29.420Z,1.90
2023-03-11T03:47:29.441Z,1.90
2023-03-11T03:52:29.397Z,1.90
2023-03-11T04:07:29.413Z,4.00
2023-03-11T04:12:29.410Z,3.00
2023-03-11T04:22:29.423Z,3.00
2023-03-11T04:27:29.439Z,3.40
2023-03-11T04:32:29.464Z,3.40
2023-03-11T04:37:29.460Z,3.90
2023-03-11T04:52:29.425Z,2.90
2023-03-11T05:07:29.446Z,3.80
2023-03-11T05:12:29.443Z,3.80
2023-03-11T05:22:29.451Z,1.70
2023-03-11T05:32:29.442Z,1.70
2023-03-11T05:42:29.451Z,3.10
2023-03-11T05:52:29.463Z,3.30
2023-03-11T06:02:29.464Z,3.30
2023-03-11T06:07:29.460Z,3.30
2023-03-11T06:12:29.439Z,3.30
2023-03-11T06:17:30.545Z,3.30
2023-03-11T06:22:29.472Z,3.10
2023-03-11T06:37:29.439Z,2.30
2023-03-11T06:42:29.460Z,2.30
2023-03-11T06:52:29.463Z,4.10
2023-03-11T07:02:29.453Z,4.10
2023-03-11T07:17:29.436Z,4.10
2023-03-11T07:27:29.481Z,5.70
2023-03-11T07:32:29.524Z,5.70
2023-03-11T07:37:29.451Z,4.00
2023-03-11T07:47:29.472Z,4.00
2023-03-11T08:02:29.564Z,4.70
2023-03-11T08:07:29.450Z,3.00
2023-03-11T08:17:29.477Z,3.00
2023-03-11T08:22:29.454Z,5.10
2023-03-11T08:27:29.481Z,5.10
2023-03-11T08:32:29.497Z,5.10
2023-03-11T08:37:29.444Z,4.90
2023-03-11T08:42:29.454Z,4.90
2023-03-11T08:47:29.490Z,4.90
2023-03-11T08:52:29.454Z,3.20
2023-03-11T08:57:29.483Z,3.20
2023-03-11T09:02:29.552Z,3.20
2023-03-11T09:07:29.472Z,5.40
2023-03-11T09:12:29.504Z,5.40
2023-03-11T09:17:29.485Z,5.40
2023-03-11T09:22:29.481Z,4.40
2023-03-11T09:27:29.487Z,4.40
2023-03-11T09:32:29.529Z,4.40
2023-03-11T09:37:29.483Z,6.90
2023-03-11T09:42:29.500Z,6.90
2023-03-11T09:47:29.503Z,6.90
2023-03-11T09:52:29.502Z,5.80
2023-03-11T09:57:29.492Z,5.80
2023-03-11T10:02:29.604Z,5.80
2023-03-11T10:07:29.482Z,1.90
2023-03-11T10:12:29.488Z,1.90
2023-03-11T10:17:29.478Z,1.90
2023-03-11T10:22:29.509Z,1.30
2023-03-11T10:27:29.536Z,1.30
2023-03-11T10:32:29.556Z,1.30
2023-03-11T10:37:46.207Z,4.80
2023-03-11T10:42:29.527Z,4.80
2023-03-11T10:47:29.511Z,4.80
2023-03-11T10:52:29.504Z,2.60
2023-03-11T10:57:29.494Z,2.60
2023-03-11T11:02:29.499Z,2.60
2023-03-11T11:07:29.497Z,2.10
2023-03-11T11:12:29.523Z,2.10
2023-03-11T11:17:29.500Z,2.10
2023-03-11T11:22:29.509Z,3.10
2023-03-11T11:32:29.670Z,3.10
2023-03-11T11:37:29.501Z,2.10
2023-03-11T11:42:29.504Z,2.10
2023-03-11T11:52:29.484Z,1.90
2023-03-11T11:57:29.484Z,1.90
2023-03-11T12:02:29.560Z,1.90
2023-03-11T12:07:29.479Z,6.00
2023-03-11T12:12:29.490Z,6.00
2023-03-11T12:27:29.503Z,3.50
2023-03-11T12:32:29.620Z,3.50
2023-03-11T12:37:29.516Z,4.40
2023-03-11T12:42:29.514Z,4.40
2023-03-11T12:47:29.502Z,4.40
2023-03-11T12:52:29.487Z,4.30
2023-03-11T12:57:29.541Z,4.30
2023-03-11T13:02:29.645Z,4.30
2023-03-11T13:07:29.501Z,1.70
2023-03-11T13:12:29.530Z,1.70
2023-03-11T13:17:29.535Z,1.70
2023-03-11T13:22:29.505Z,4.50
2023-03-11T13:37:29.552Z,4.60
2023-03-11T13:42:29.533Z,4.60
2023-03-11T13:47:29.553Z,4.60
2023-03-11T13:52:29.540Z,5.60
2023-03-11T13:57:29.509Z,5.60
2023-03-11T14:02:29.547Z,5.60
2023-03-11T14:07:29.566Z,1.30
2023-03-11T14:12:29.534Z,1.30
2023-03-11T14:17:29.567Z,1.30
2023-03-11T14:22:29.537Z,2.90
2023-03-11T14:27:29.519Z,2.90
2023-03-11T14:32:29.574Z,2.90
2023-03-11T14:37:29.543Z,5.30
2023-03-11T14:42:29.530Z,5.30
2023-03-11T14:47:29.532Z,5.30
2023-03-11T14:52:29.532Z,2.20
2023-03-11T14:57:29.563Z,2.20
2023-03-11T15:02:29.549Z,2.20
2023-03-11T15:07:29.540Z,3.10
2023-03-11T15:17:37.335Z,3.10
2023-03-11T15:22:29.560Z,3.10
2023-03-11T15:27:29.544Z,3.10
2023-03-11T15:32:29.633Z,3.10
2023-03-11T15:37:29.572Z,3.50
2023-03-11T15:42:29.548Z,3.50
2023-03-11T15:47:29.568Z,3.50
2023-03-11T15:52:29.572Z,1.70
2023-03-11T15:57:29.554Z,1.70
2023-03-11T16:02:29.576Z,1.70
2023-03-11T16:07:39.162Z,2.20
2023-03-11T16:12:29.532Z,2.20
2023-03-11T16:17:42.938Z,2.20
2023-03-11T16:22:29.578Z,2.10
2023-03-11T16:32:29.593Z,2.10
2023-03-11T16:37:29.580Z,2.30
2023-03-11T16:47:29.558Z,2.30
2023-03-11T16:52:29.623Z,2.90
2023-03-11T16:57:29.576Z,2.90
2023-03-11T17:02:29.576Z,2.90
2023-03-11T17:07:29.589Z,4.90
2023-03-11T17:17:29.609Z,4.90
2023-03-11T17:22:29.630Z,2.80
2023-03-11T17:27:29.568Z,2.80
2023-03-11T17:32:29.623Z,2.80
2023-03-11T17:37:29.597Z,1.90
2023-03-11T17:47:29.610Z,1.90
2023-03-11T17:52:29.603Z,4.30
2023-03-11T17:57:30.309Z,4.30
2023-03-11T18:02:29.595Z,4.30
2023-03-11T18:07:29.599Z,4.30
2023-03-11T18:12:29.588Z,4.30
2023-03-11T18:17:29.597Z,4.30
2023-03-11T18:22:29.597Z,4.20
2023-03-11T18:37:29.612Z,4.90
2023-03-11T18:42:29.616Z,4.90
2023-03-11T18:47:29.591Z,4.90
2023-03-11T18:52:29.649Z,6.60
2023-03-11T18:57:29.588Z,6.60
2023-03-11T19:02:29.591Z,6.60
2023-03-11T19:12:29.612Z,6.80
2023-03-11T19:17:29.628Z,6.80
2023-03-11T19:22:29.626Z,6.20
2023-03-11T19:27:29.626Z,6.20
2023-03-11T19:32:29.618Z,6.20
2023-03-11T19:42:29.618Z,11.90
2023-03-11T19:47:29.594Z,11.90
2023-03-11T19:57:29.618Z,8.80
2023-03-11T20:02:29.733Z,8.80
2023-03-11T20:07:29.637Z,5.90
2023-03-11T20:12:29.610Z,5.90
2023-03-11T20:17:29.688Z,5.90
2023-03-11T20:22:29.629Z,7.20
2023-03-11T20:27:29.692Z,7.20
2023-03-11T20:32:29.643Z,7.20
2023-03-11T20:37:29.634Z,7.90
2023-03-11T20:42:29.724Z,7.90
2023-03-11T20:47:29.608Z,7.90
2023-03-11T20:52:29.675Z,7.00
2023-03-11T20:57:29.672Z,7.00
2023-03-11T21:02:29.777Z,7.00
2023-03-11T21:07:29.643Z,6.80
2023-03-11T21:17:29.728Z,6.80
2023-03-11T21:22:29.783Z,7.30
2023-03-11T21:27:29.778Z,7.30
2023-03-11T21:32:29.838Z,7.30
2023-03-11T21:37:29.740Z,9.90
2023-03-11T22:02:29.649Z,8.50
2023-03-11T22:07:29.676Z,7.60
2023-03-11T22:12:29.784Z,7.60
2023-03-11T22:37:29.641Z,9.50
2023-03-11T22:42:29.677Z,9.50
2023-03-11T22:47:29.661Z,9.50
2023-03-11T22:57:29.690Z,7.60
2023-03-11T23:07:29.646Z,7.00
2023-03-11T23:12:29.672Z,7.00
2023-03-11T23:17:29.685Z,7.00
2023-03-11T23:27:29.646Z,9.40
2023-03-11T23:37:29.678Z,7.00
2023-03-11T23:42:29.647Z,7.00
2023-03-11T23:47:29.676Z,7.00
2023-03-11T23:57:29.691Z,6.10
